General Aviation Weather

Text Reports

Enter one or more of the following location identifiers separated by a space:

Zip Code, Four-Character ICAO or Three-Character IATA airport codes.

METAR - Aviation Routine Weather Report
KY63 - Elbow Lake, Minnesota
Updated at 12:52 AM GMT on August 01, 2014 (7:52 PM CDT):
METAR KY63 010052Z AUTO 31003KT 10SM SCT055 24/16 A3001 RMK AO2 T02400163
TAF - Terminal Area Forecast
KY63 - Elbow Lake, Minnesota
Updated at 12:52 AM GMT on August 01, 2014 (7:52 PM CDT):
No TAF is currently available for this location.
Decoded:
No decoded TAF is available.
PIREP - Pilot Weather Report
KY63 - Elbow Lake, Minnesota
Updated at 12:52 AM GMT on August 01, 2014 (7:52 PM CDT):
No PIREP is currently available for this location.
AIRMET - Airmens Meteorological Information
KY63 - Elbow Lake, Minnesota
Updated at 12:52 AM GMT on August 01, 2014 (7:52 PM CDT):
No AIRMET is currently available for this location.
SIGMET - Significant Meteorological Information
KY63 - Elbow Lake, Minnesota
Updated at 12:52 AM GMT on August 01, 2014 (7:52 PM CDT):
No SIGMET is currently available for this location.
NOTAM - Notice to Airmen
KY63 - Elbow Lake, Minnesota
Updated at 12:52 AM GMT on August 01, 2014 (7:52 PM CDT):
No NOTAM is currently available for this location.
Forecast Area
KY63 - Elbow Lake, Minnesota
Updated at 12:52 AM GMT on August 01, 2014 (7:52 PM CDT):
No NOTAM is currently available for this location.
Aviation Weather Maps